Augusta, Michigan
Current Conditions -  °F | °C
As of 10:53 PM on Thursday 27 Nov 2014 (Local Time) from KBTL Reporting Station
Overcast Overcast  
Wind Chill: 13°   Ceiling: 4200
Heat Index: 22°   Visibility: 10mi
Dew Point: 14°   Wind: 7mph
Humidity: 72%   Direction: 350°N
Pressure: 30.33"   Gusts: NA
Location:  42.34°N, 85.35°W
Report Text: KBTL 280353Z 35006KT 10SM SCT018 OVC042 M06/M10 A3033 RMK AO2 SNB07E21 SLP283 P0000 T10561100 $
Loading
Personal Weather Stations






























Interactive Weather Map New forecast layout! Learn more

10-Day Weather Forecast

Advertisements
Track Severe Weather on mobile